Terminal Aerodrome Forecast
Issued by NWS

Home | Current Version | Previous Version | Graphics & Text | Print | Product List | Glossary On
Versions: 1 2 3 4 5 6 7 8 9 10 11 12 13 14 15 16 17 18 19 20 21 22
000
FTUS43 KBIS 081730
TAFDIK
TAF
KDIK 081730Z 0818/0918 30012KT P6SM BKN015 OVC025
     FM082200 29007KT P6SM BKN035
     FM090100 29005KT P6SM SCT035 SCT070
     FM090800 35004KT P6SM BKN020
     FM091000 03004KT P6SM BKN010
     FM091200 06004KT P6SM BKN008=

USA.gov is the U.S. government's official web portal to all federal, state and local government web resources and services.